createdAt,value
2022-09-22T00:01:26.628Z,11.90
2022-09-22T00:04:03.729Z,11.90
2022-09-22T00:06:38.844Z,11.90
2022-09-22T00:09:09.022Z,11.90
2022-09-22T00:11:45.747Z,11.90
2022-09-22T00:14:20.548Z,11.90
2022-09-22T00:16:51.018Z,11.80
2022-09-22T00:19:21.619Z,11.70
2022-09-22T00:21:49.744Z,11.70
2022-09-22T00:24:18.777Z,11.70
2022-09-22T00:26:46.282Z,11.60
2022-09-22T00:29:13.655Z,11.60
2022-09-22T00:31:41.957Z,11.60
2022-09-22T00:34:17.743Z,11.60
2022-09-22T00:36:45.611Z,11.60
2022-09-22T00:39:13.661Z,11.60
2022-09-22T00:41:45.208Z,11.50
2022-09-22T00:44:21.893Z,11.50
2022-09-22T00:47:08.347Z,11.50
2022-09-22T00:50:07.900Z,11.40
2022-09-22T00:52:46.492Z,11.40
2022-09-22T00:55:38.495Z,11.30
2022-09-22T00:58:10.004Z,11.30
2022-09-22T01:00:37.791Z,11.20
2022-09-22T01:03:09.171Z,11.20
2022-09-22T01:05:38.849Z,11.20
2022-09-22T01:08:07.361Z,11.20
2022-09-22T01:10:34.640Z,11.10
2022-09-22T01:13:24.547Z,11.10
2022-09-22T01:16:12.187Z,11.10
2022-09-22T01:18:47.591Z,11.00
2022-09-22T01:21:40.005Z,11.00
2022-09-22T01:24:39.079Z,11.00
2022-09-22T01:27:23.560Z,11.00
2022-09-22T01:30:21.666Z,10.90
2022-09-22T01:33:06.315Z,10.90
2022-09-22T01:36:11.655Z,10.90
2022-09-22T01:39:05.942Z,10.90
2022-09-22T01:42:00.195Z,10.80
2022-09-22T01:44:35.828Z,10.80
2022-09-22T01:47:24.539Z,10.80
2022-09-22T01:49:57.318Z,10.80
2022-09-22T01:52:28.905Z,10.70
2022-09-22T01:55:14.263Z,10.70
2022-09-22T01:57:44.492Z,10.70
2022-09-22T02:00:12.342Z,10.70
2022-09-22T02:02:52.499Z,10.70
2022-09-22T02:05:26.579Z,10.70
2022-09-22T02:07:55.571Z,10.70
2022-09-22T02:10:28.069Z,10.60
2022-09-22T02:12:55.583Z,10.60
2022-09-22T02:15:41.703Z,10.70
2022-09-22T02:18:16.437Z,10.60
2022-09-22T02:20:44.759Z,10.60
2022-09-22T02:23:11.979Z,10.60
2022-09-22T02:25:41.719Z,10.60
2022-09-22T02:28:10.505Z,10.60
2022-09-22T02:30:37.931Z,10.60
2022-09-22T02:33:06.466Z,10.60
2022-09-22T02:35:37.796Z,10.60
2022-09-22T02:38:12.691Z,10.60
2022-09-22T02:40:45.067Z,10.60
2022-09-22T02:43:33.692Z,10.60
2022-09-22T02:46:18.828Z,10.50
2022-09-22T02:48:49.707Z,10.50
2022-09-22T02:51:18.581Z,10.50
2022-09-22T02:53:45.961Z,10.50
2022-09-22T02:56:13.595Z,10.50
2022-09-22T02:58:40.819Z,10.40
2022-09-22T03:01:08.123Z,10.40
2022-09-22T03:03:35.812Z,10.40
2022-09-22T03:06:03.395Z,10.40
2022-09-22T03:08:30.600Z,10.40
2022-09-22T03:10:57.825Z,10.50
2022-09-22T03:13:25.029Z,10.60
2022-09-22T03:15:53.063Z,10.60
2022-09-22T03:18:20.464Z,10.70
2022-09-22T03:20:47.972Z,10.80
2022-09-22T03:23:15.236Z,10.90
2022-09-22T03:25:42.631Z,10.90
2022-09-22T03:28:09.976Z,10.90
2022-09-22T03:30:40.223Z,11.00
2022-09-22T03:33:07.723Z,11.10
2022-09-22T03:35:35.720Z,11.10
2022-09-22T03:38:03.181Z,11.20
2022-09-22T03:40:31.155Z,11.20
2022-09-22T03:42:58.474Z,11.30
2022-09-22T03:45:25.972Z,11.30
2022-09-22T03:47:54.692Z,11.30
2022-09-22T03:50:22.185Z,11.20
2022-09-22T03:52:49.591Z,11.20
2022-09-22T03:55:16.996Z,11.10
2022-09-22T03:57:44.351Z,11.00
2022-09-22T04:00:14.333Z,11.00
2022-09-22T04:02:41.755Z,10.90
2022-09-22T04:05:10.036Z,10.80
2022-09-22T04:07:37.501Z,10.80
2022-09-22T04:10:05.200Z,10.80
2022-09-22T04:12:32.555Z,10.80
2022-09-22T04:14:59.897Z,10.80
2022-09-22T04:17:27.169Z,10.70
2022-09-22T04:19:55.358Z,10.70
2022-09-22T04:22:23.067Z,10.70
2022-09-22T04:24:50.423Z,10.70
2022-09-22T04:27:20.399Z,10.70
2022-09-22T04:29:49.101Z,10.70
2022-09-22T04:32:17.808Z,10.60
2022-09-22T04:34:45.453Z,10.60
2022-09-22T04:37:13.867Z,10.60
2022-09-22T04:39:41.571Z,10.60
2022-09-22T04:42:11.613Z,10.60
2022-09-22T04:44:38.973Z,10.50
2022-09-22T04:47:06.776Z,10.50
2022-09-22T04:49:34.108Z,10.50
2022-09-22T04:52:02.383Z,10.50
2022-09-22T04:54:29.767Z,10.50
2022-09-22T04:56:57.149Z,10.50
2022-09-22T04:59:24.528Z,10.50
2022-09-22T05:01:51.866Z,10.50
2022-09-22T05:04:19.099Z,10.50
2022-09-22T05:06:46.956Z,10.60
2022-09-22T05:09:14.578Z,10.70
2022-09-22T05:11:41.803Z,10.70
2022-09-22T05:14:09.268Z,10.90
2022-09-22T05:16:36.935Z,10.90
2022-09-22T05:19:04.615Z,10.90
2022-09-22T05:21:31.882Z,11.00
2022-09-22T05:23:59.436Z,11.20
2022-09-22T05:26:27.513Z,11.30
2022-09-22T05:28:55.096Z,11.40
2022-09-22T05:31:22.527Z,11.50
2022-09-22T05:33:49.890Z,11.60
2022-09-22T05:36:17.376Z,11.70
2022-09-22T05:38:44.590Z,11.70
2022-09-22T05:41:11.807Z,11.80
2022-09-22T05:43:39.150Z,11.90
2022-09-22T05:46:06.582Z,12.00
2022-09-22T05:48:33.856Z,12.10
2022-09-22T05:51:01.618Z,12.20
2022-09-22T05:53:29.234Z,12.30
2022-09-22T05:55:57.165Z,12.30
2022-09-22T05:58:24.368Z,12.40
2022-09-22T06:00:51.933Z,12.50
2022-09-22T06:03:19.585Z,12.60
2022-09-22T06:05:47.083Z,12.80
2022-09-22T06:08:14.428Z,12.90
2022-09-22T06:10:42.118Z,13.00
2022-09-22T06:13:11.239Z,13.10
2022-09-22T06:15:38.945Z,13.20
2022-09-22T06:18:11.875Z,13.50
2022-09-22T06:20:42.611Z,13.70
2022-09-22T06:23:10.803Z,13.90
2022-09-22T06:25:38.204Z,13.90
2022-09-22T06:28:07.365Z,14.00
2022-09-22T06:30:38.107Z,14.00
2022-09-22T06:33:05.915Z,14.00
2022-09-22T06:35:39.667Z,14.00
2022-09-22T06:38:08.144Z,14.10
2022-09-22T06:40:38.606Z,14.00
2022-09-22T06:43:13.038Z,14.00
2022-09-22T06:45:40.908Z,14.10
2022-09-22T06:48:10.757Z,14.20
2022-09-22T06:50:38.882Z,14.20
2022-09-22T06:53:08.243Z,14.30
2022-09-22T06:55:36.139Z,14.40
2022-09-22T06:58:03.732Z,14.50
2022-09-22T07:00:33.125Z,14.50
2022-09-22T07:03:17.847Z,14.50
2022-09-22T07:05:54.018Z,14.50
2022-09-22T07:08:22.518Z,14.60
2022-09-22T07:10:57.050Z,14.70
2022-09-22T07:13:26.060Z,14.80
2022-09-22T07:15:55.503Z,14.80
2022-09-22T07:18:23.118Z,14.90
2022-09-22T07:20:51.197Z,14.90
2022-09-22T07:23:21.020Z,15.00
2022-09-22T07:25:56.276Z,15.20
2022-09-22T07:28:28.818Z,15.30
2022-09-22T07:30:59.594Z,15.50
2022-09-22T07:33:27.084Z,15.70
2022-09-22T07:36:10.781Z,15.90
2022-09-22T07:38:39.396Z,16.20
2022-09-22T07:41:14.964Z,16.50
2022-09-22T07:43:42.606Z,16.80
2022-09-22T07:46:10.013Z,17.10
2022-09-22T07:48:38.176Z,17.30
2022-09-22T07:51:12.920Z,17.30
2022-09-22T07:53:43.038Z,17.10
2022-09-22T07:56:12.482Z,17.00
2022-09-22T07:58:41.368Z,16.90
2022-09-22T08:01:09.881Z,17.00
2022-09-22T08:03:38.217Z,16.90
2022-09-22T08:06:11.363Z,16.90
2022-09-22T08:08:42.091Z,17.00
2022-09-22T08:11:13.290Z,17.00
2022-09-22T08:13:53.477Z,17.20
2022-09-22T08:16:27.909Z,17.20
2022-09-22T08:19:00.481Z,17.20
2022-09-22T08:21:32.824Z,17.20
2022-09-22T08:24:00.989Z,17.30
2022-09-22T08:26:28.613Z,17.30
2022-09-22T08:28:57.752Z,17.40
2022-09-22T08:31:27.603Z,17.40
2022-09-22T08:33:55.861Z,17.40
2022-09-22T08:36:25.223Z,17.30
2022-09-22T08:38:53.227Z,17.30
2022-09-22T08:41:38.840Z,17.20
2022-09-22T08:44:12.246Z,17.20
2022-09-22T08:46:44.159Z,17.20
2022-09-22T08:50:05.648Z,17.30
2022-09-22T08:52:40.629Z,17.40
2022-09-22T08:55:23.194Z,17.60
2022-09-22T08:57:51.263Z,17.70
2022-09-22T09:00:20.130Z,18.00
2022-09-22T09:03:02.599Z,18.10
2022-09-22T09:05:47.883Z,18.10
2022-09-22T09:08:36.450Z,18.30
2022-09-22T09:11:10.115Z,18.50
2022-09-22T09:14:06.927Z,18.40
2022-09-22T09:16:46.652Z,18.40
2022-09-22T09:19:25.380Z,18.60
2022-09-22T09:21:56.600Z,18.50
2022-09-22T09:27:25.870Z,18.00
2022-09-22T09:30:20.794Z,18.00
2022-09-22T09:32:57.544Z,18.10
2022-09-22T09:35:39.709Z,18.30
2022-09-22T09:38:14.617Z,18.30
2022-09-22T09:40:43.067Z,18.30
2022-09-22T09:43:10.994Z,18.10
2022-09-22T09:45:56.227Z,18.00
2022-09-22T09:48:41.226Z,17.90
2022-09-22T09:51:12.779Z,17.80
2022-09-22T09:53:45.292Z,17.80
2022-09-22T09:56:28.118Z,17.90
2022-09-22T09:59:24.958Z,17.90
2022-09-22T10:01:54.418Z,18.00
2022-09-22T10:04:37.234Z,18.10
2022-09-22T10:07:21.405Z,18.40
2022-09-22T10:09:50.579Z,18.80
2022-09-22T10:12:35.651Z,19.20
2022-09-22T10:15:03.028Z,19.40
2022-09-22T10:17:39.094Z,19.30
2022-09-22T10:20:21.988Z,19.10
2022-09-22T10:22:49.901Z,18.80
2022-09-22T10:25:32.278Z,18.70
2022-09-22T10:27:59.481Z,18.70
2022-09-22T10:30:27.409Z,18.70
2022-09-22T10:33:12.918Z,18.80
2022-09-22T10:35:47.553Z,18.90
2022-09-22T10:38:23.750Z,18.90
2022-09-22T10:41:00.268Z,18.70
2022-09-22T10:43:40.400Z,18.40
2022-09-22T10:46:36.695Z,18.20
2022-09-22T10:49:26.208Z,18.10
2022-09-22T10:51:59.399Z,18.30
2022-09-22T10:54:53.419Z,18.60
2022-09-22T10:57:43.341Z,18.80
2022-09-22T11:00:21.942Z,18.80
2022-09-22T11:03:20.266Z,19.10
2022-09-22T11:06:33.655Z,19.20
2022-09-22T11:12:42.787Z,19.00
2022-09-22T11:15:21.627Z,19.10
2022-09-22T11:17:53.203Z,18.90
2022-09-22T11:20:43.211Z,18.90
2022-09-22T11:23:48.024Z,19.20
2022-09-22T11:26:35.202Z,19.40
2022-09-22T11:29:29.840Z,19.50
2022-09-22T11:32:23.539Z,19.50
2022-09-22T11:35:22.820Z,19.70
2022-09-22T11:38:13.238Z,19.60
2022-09-22T11:41:08.911Z,19.30
2022-09-22T11:43:53.484Z,19.10
2022-09-22T11:46:27.816Z,19.20
2022-09-22T11:49:11.176Z,19.40
2022-09-22T11:52:09.618Z,19.20
2022-09-22T11:54:46.004Z,19.20
2022-09-22T11:57:17.909Z,19.10
2022-09-22T12:00:05.703Z,19.00
2022-09-22T12:03:03.025Z,19.00
2022-09-22T12:05:52.519Z,19.00
2022-09-22T12:08:23.691Z,19.00
2022-09-22T12:10:51.974Z,19.00
2022-09-22T12:13:28.210Z,19.10
2022-09-22T12:16:20.501Z,19.20
2022-09-22T12:19:13.457Z,19.30
2022-09-22T12:21:54.519Z,19.60
2022-09-22T12:24:22.171Z,19.80
2022-09-22T12:26:51.093Z,19.90
2022-09-22T12:29:31.017Z,20.10
2022-09-22T12:31:59.828Z,20.20
2022-09-22T12:34:33.944Z,20.20
2022-09-22T12:37:14.269Z,20.00
2022-09-22T12:39:46.327Z,20.00
2022-09-22T12:42:28.666Z,20.00
2022-09-22T12:45:19.637Z,20.00
2022-09-22T12:47:51.555Z,20.10
2022-09-22T12:50:24.717Z,20.20
2022-09-22T12:52:51.974Z,20.30
2022-09-22T12:55:25.894Z,20.50
2022-09-22T12:57:53.328Z,20.70
2022-09-22T13:00:34.493Z,20.70
2022-09-22T13:03:24.660Z,20.50
2022-09-22T13:05:57.557Z,20.40
2022-09-22T13:08:48.253Z,20.20
2022-09-22T13:11:15.907Z,20.20
2022-09-22T13:13:49.096Z,20.20
2022-09-22T13:16:16.687Z,20.00
2022-09-22T13:18:52.390Z,19.80
2022-09-22T13:21:28.378Z,19.80
2022-09-22T13:23:56.390Z,19.70
2022-09-22T13:26:25.314Z,19.60
2022-09-22T13:29:19.146Z,19.50
2022-09-22T13:31:52.771Z,19.40
2022-09-22T13:34:34.562Z,19.20
2022-09-22T13:37:07.935Z,19.10
2022-09-22T13:39:47.967Z,19.10
2022-09-22T13:42:23.983Z,19.10
2022-09-22T13:45:01.652Z,19.30
2022-09-22T13:47:29.891Z,19.50
2022-09-22T13:50:03.241Z,19.60
2022-09-22T13:52:33.047Z,19.60
2022-09-22T13:55:37.379Z,19.80
2022-09-22T13:58:16.337Z,20.20
2022-09-22T14:01:13.839Z,20.30
2022-09-22T14:03:42.546Z,20.30
2022-09-22T14:06:19.435Z,20.20
2022-09-22T14:08:49.248Z,20.10
2022-09-22T14:11:26.977Z,19.60
2022-09-22T14:13:54.612Z,19.20
2022-09-22T14:16:49.335Z,18.90
2022-09-22T14:19:29.259Z,18.60
2022-09-22T14:21:58.365Z,18.30
2022-09-22T14:24:27.521Z,18.10
2022-09-22T14:27:06.639Z,18.00
2022-09-22T14:29:38.690Z,17.80
2022-09-22T14:32:17.553Z,17.70
2022-09-22T14:34:49.826Z,17.60
2022-09-22T14:37:45.911Z,17.60
2022-09-22T14:40:25.166Z,17.50
2022-09-22T14:43:05.794Z,17.50
2022-09-22T14:45:33.270Z,17.40
2022-09-22T14:48:12.780Z,17.40
2022-09-22T14:50:45.461Z,17.40
2022-09-22T14:53:18.399Z,17.40
2022-09-22T14:55:50.505Z,17.50
2022-09-22T14:58:28.921Z,17.50
2022-09-22T15:01:42.055Z,17.50
2022-09-22T15:04:26.759Z,17.50
2022-09-22T15:06:57.192Z,17.40
2022-09-22T15:09:29.250Z,17.30
2022-09-22T15:12:02.224Z,17.30
2022-09-22T15:14:42.654Z,17.20
2022-09-22T15:17:53.671Z,17.30
2022-09-22T15:20:33.027Z,17.30
2022-09-22T15:23:00.950Z,17.30
2022-09-22T15:25:28.459Z,17.40
2022-09-22T15:27:55.762Z,17.30
2022-09-22T15:30:23.216Z,17.40
2022-09-22T15:32:50.557Z,17.40
2022-09-22T15:35:18.838Z,17.40
2022-09-22T15:37:47.763Z,17.50
2022-09-22T15:40:18.562Z,17.50
2022-09-22T15:43:08.576Z,17.50
2022-09-22T15:45:47.994Z,17.30
2022-09-22T15:48:37.408Z,17.20
2022-09-22T15:51:12.475Z,17.00
2022-09-22T15:53:41.559Z,16.90
2022-09-22T15:56:20.351Z,16.80
2022-09-22T15:58:50.487Z,16.80
2022-09-22T16:01:18.039Z,16.70
2022-09-22T16:03:45.782Z,16.60
2022-09-22T16:06:16.552Z,16.60
2022-09-22T16:08:46.767Z,16.60
2022-09-22T16:11:16.585Z,16.50
2022-09-22T16:13:44.524Z,16.40
2022-09-22T16:16:12.605Z,16.40
2022-09-22T16:18:41.796Z,16.30
2022-09-22T16:21:23.697Z,16.30
2022-09-22T16:23:51.367Z,16.30
2022-09-22T16:26:18.593Z,16.20
2022-09-22T16:28:46.019Z,16.20
2022-09-22T16:31:14.391Z,16.20
2022-09-22T16:33:43.901Z,16.10
2022-09-22T16:36:11.465Z,16.00
2022-09-22T16:38:39.488Z,16.00
2022-09-22T16:41:26.898Z,16.00
2022-09-22T16:43:55.647Z,15.90
2022-09-22T16:46:27.110Z,15.90
2022-09-22T16:49:04.353Z,15.90
2022-09-22T16:51:33.741Z,15.90
2022-09-22T16:54:01.438Z,15.80
2022-09-22T16:56:33.895Z,15.80
2022-09-22T16:59:01.498Z,15.70
2022-09-22T17:01:31.322Z,15.60
2022-09-22T17:04:00.161Z,15.50
2022-09-22T17:06:28.940Z,15.50
2022-09-22T17:08:57.519Z,15.50
2022-09-22T17:11:30.891Z,15.40
2022-09-22T17:14:03.139Z,15.30
2022-09-22T17:16:36.138Z,15.20
2022-09-22T17:19:11.973Z,15.20
2022-09-22T17:21:40.369Z,15.10
2022-09-22T17:24:09.277Z,15.10
2022-09-22T17:26:38.108Z,15.00
2022-09-22T17:29:06.963Z,14.90
2022-09-22T17:31:36.595Z,14.90
2022-09-22T17:34:04.216Z,14.80
2022-09-22T17:36:32.053Z,14.70
2022-09-22T17:39:00.628Z,14.60
2022-09-22T17:41:32.648Z,14.50
2022-09-22T17:44:03.007Z,14.50
2022-09-22T17:46:32.724Z,14.40
2022-09-22T17:49:20.830Z,14.40
2022-09-22T17:52:08.285Z,14.40
2022-09-22T17:54:55.403Z,14.30
2022-09-22T17:57:33.510Z,14.20
2022-09-22T18:00:01.011Z,14.20
2022-09-22T18:02:32.280Z,14.10
2022-09-22T18:05:00.191Z,14.00
2022-09-22T18:07:27.978Z,13.90
2022-09-22T18:09:55.591Z,13.90
2022-09-22T18:12:24.709Z,13.80
2022-09-22T18:14:53.695Z,13.80
2022-09-22T18:17:24.765Z,13.70
2022-09-22T18:19:56.820Z,13.70
2022-09-22T18:22:26.022Z,13.60
2022-09-22T18:24:56.214Z,13.60
2022-09-22T18:27:29.073Z,13.50
2022-09-22T18:30:07.515Z,13.50
2022-09-22T18:32:36.214Z,13.40
2022-09-22T18:35:06.116Z,13.40
2022-09-22T18:37:34.423Z,13.30
2022-09-22T18:40:03.277Z,13.30
2022-09-22T18:42:32.381Z,13.30
2022-09-22T18:45:00.369Z,13.20
2022-09-22T18:47:29.170Z,13.20
2022-09-22T18:49:57.032Z,13.20
2022-09-22T18:52:24.335Z,13.10
2022-09-22T18:54:53.776Z,13.00
2022-09-22T18:57:22.621Z,13.00
2022-09-22T18:59:51.315Z,12.90
2022-09-22T19:02:23.262Z,12.90
2022-09-22T19:04:54.295Z,12.90
2022-09-22T19:07:44.388Z,12.80
2022-09-22T19:10:14.827Z,12.80
2022-09-22T19:12:42.528Z,12.70
2022-09-22T19:15:16.753Z,12.70
2022-09-22T19:17:46.112Z,12.70
2022-09-22T19:20:17.275Z,12.60
2022-09-22T19:22:45.365Z,12.60
2022-09-22T19:25:13.208Z,12.50
2022-09-22T19:27:40.652Z,12.50
2022-09-22T19:30:09.387Z,12.40
2022-09-22T19:32:37.372Z,12.40
2022-09-22T19:35:06.317Z,12.40
2022-09-22T19:37:36.041Z,12.30
2022-09-22T19:40:05.589Z,12.30
2022-09-22T19:42:38.001Z,12.30
2022-09-22T19:45:08.062Z,12.20
2022-09-22T19:47:39.462Z,12.10
2022-09-22T19:50:08.152Z,12.10
2022-09-22T19:52:36.520Z,12.00
2022-09-22T19:55:05.549Z,12.00
2022-09-22T19:57:32.934Z,11.90
2022-09-22T20:00:00.324Z,11.90
2022-09-22T20:02:27.553Z,11.90
2022-09-22T20:04:56.022Z,11.90
2022-09-22T20:07:27.752Z,11.90
2022-09-22T20:09:57.815Z,11.90
2022-09-22T20:12:25.256Z,11.80
2022-09-22T20:14:53.407Z,11.80
2022-09-22T20:17:20.785Z,11.80
2022-09-22T20:19:48.215Z,11.80
2022-09-22T20:22:28.094Z,11.80
2022-09-22T20:24:58.814Z,11.70
2022-09-22T20:27:29.279Z,11.70
2022-09-22T20:29:57.841Z,11.70
2022-09-22T20:32:26.696Z,11.60
2022-09-22T20:34:55.304Z,11.60
2022-09-22T20:37:24.560Z,11.60
2022-09-22T20:39:52.064Z,11.60
2022-09-22T20:42:19.528Z,11.60
2022-09-22T20:44:47.408Z,11.50
2022-09-22T20:47:16.905Z,11.50
2022-09-22T20:49:48.105Z,11.50
2022-09-22T20:52:20.826Z,11.50
2022-09-22T20:54:48.945Z,11.50
2022-09-22T20:57:16.904Z,11.40
2022-09-22T20:59:45.856Z,11.40
2022-09-22T21:02:14.916Z,11.30
2022-09-22T21:04:42.546Z,11.20
2022-09-22T21:07:11.604Z,11.10
2022-09-22T21:09:57.509Z,11.00
2022-09-22T21:12:30.273Z,11.00
2022-09-22T21:14:58.952Z,10.90
2022-09-22T21:17:31.065Z,10.90
2022-09-22T21:19:58.291Z,10.90
2022-09-22T21:22:28.254Z,10.90
2022-09-22T21:24:56.092Z,10.90
2022-09-22T21:27:25.196Z,10.80
2022-09-22T21:29:53.332Z,10.80
2022-09-22T21:32:20.906Z,10.80
2022-09-22T21:34:48.688Z,10.70
2022-09-22T21:37:16.214Z,10.70
2022-09-22T21:39:43.539Z,10.60
2022-09-22T21:42:10.791Z,10.60
2022-09-22T21:44:38.503Z,10.60
2022-09-22T21:47:05.826Z,10.50
2022-09-22T21:49:33.073Z,10.50
2022-09-22T21:52:01.108Z,10.50
2022-09-22T21:54:28.481Z,10.40
2022-09-22T21:56:56.734Z,10.30
2022-09-22T21:59:24.258Z,10.20
2022-09-22T22:01:51.715Z,10.20
2022-09-22T22:04:19.140Z,10.10
2022-09-22T22:06:47.177Z,10.10
2022-09-22T22:09:18.637Z,10.00
2022-09-22T22:11:52.046Z,10.00
2022-09-22T22:14:20.351Z,10.00
2022-09-22T22:16:51.156Z,9.90
2022-09-22T22:19:20.860Z,9.90
2022-09-22T22:21:50.641Z,9.90
2022-09-22T22:24:31.431Z,9.90
2022-09-22T22:27:06.335Z,9.90
2022-09-22T22:29:36.527Z,9.80
2022-09-22T22:32:06.179Z,9.80
2022-09-22T22:34:33.678Z,9.80
2022-09-22T22:37:01.232Z,9.80
2022-09-22T22:39:29.966Z,9.80
2022-09-22T22:41:57.249Z,9.70
2022-09-22T22:44:24.922Z,9.70
2022-09-22T22:46:52.304Z,9.70
2022-09-22T22:49:19.821Z,9.70
2022-09-22T22:51:49.107Z,9.70
2022-09-22T22:54:16.393Z,9.70
2022-09-22T22:56:45.865Z,9.60
2022-09-22T22:59:16.232Z,9.60
2022-09-22T23:01:44.291Z,9.60
2022-09-22T23:04:12.647Z,9.60
2022-09-22T23:06:43.967Z,9.50
2022-09-22T23:09:14.589Z,9.50
2022-09-22T23:11:43.175Z,9.50
2022-09-22T23:14:12.216Z,9.40
2022-09-22T23:16:43.348Z,9.40
2022-09-22T23:19:14.037Z,9.40
2022-09-22T23:21:41.969Z,9.30
2022-09-22T23:24:09.800Z,9.30
2022-09-22T23:26:40.459Z,9.30
2022-09-22T23:29:07.942Z,9.20
2022-09-22T23:31:35.384Z,9.20
2022-09-22T23:34:02.738Z,9.20
2022-09-22T23:36:30.437Z,9.20
2022-09-22T23:39:03.359Z,9.20
2022-09-22T23:41:33.099Z,9.10
2022-09-22T23:44:00.593Z,9.00
2022-09-22T23:46:27.931Z,9.00
2022-09-22T23:48:55.733Z,9.00
2022-09-22T23:51:24.158Z,9.00
2022-09-22T23:53:51.895Z,8.90
2022-09-22T23:56:19.747Z,8.90
2022-09-22T23:58:47.348Z,8.90
